createdAt,value
2023-05-05T00:02:16.486Z,22.45
2023-05-05T00:04:43.081Z,22.24
2023-05-05T00:07:09.838Z,22.57
2023-05-05T00:09:36.293Z,22.08
2023-05-05T00:12:03.009Z,22.10
2023-05-05T00:14:29.613Z,22.24
2023-05-05T00:16:56.662Z,22.13
2023-05-05T00:19:23.330Z,22.40
2023-05-05T00:21:49.983Z,22.17
2023-05-05T00:24:16.828Z,22.29
2023-05-05T00:26:43.422Z,22.28
2023-05-05T00:29:10.174Z,21.85
2023-05-05T00:31:37.752Z,21.95
2023-05-05T00:34:04.664Z,21.94
2023-05-05T00:36:31.447Z,21.60
2023-05-05T00:38:58.022Z,21.89
2023-05-05T00:41:24.851Z,21.85
2023-05-05T00:43:52.478Z,21.84
2023-05-05T00:46:25.269Z,21.99
2023-05-05T00:48:53.517Z,21.98
2023-05-05T00:51:21.124Z,22.08
2023-05-05T00:53:48.593Z,21.96
2023-05-05T00:56:20.840Z,22.02
2023-05-05T00:58:48.108Z,21.98
2023-05-05T01:01:15.765Z,22.17
2023-05-05T01:03:42.657Z,22.26
2023-05-05T01:06:28.075Z,22.08
2023-05-05T01:09:02.113Z,22.07
2023-05-05T01:11:58.193Z,22.13
2023-05-05T01:14:37.130Z,21.66
2023-05-05T01:17:24.411Z,21.33
2023-05-05T01:19:54.637Z,21.39
2023-05-05T01:22:27.260Z,21.46
2023-05-05T01:25:21.825Z,21.53
2023-05-05T01:28:24.189Z,21.34
2023-05-05T01:31:09.071Z,21.26
2023-05-05T01:33:44.331Z,21.20
2023-05-05T01:36:22.767Z,21.14
2023-05-05T01:38:56.505Z,21.01
2023-05-05T01:41:32.037Z,20.84
2023-05-05T01:44:01.229Z,20.62
2023-05-05T01:46:27.867Z,20.59
2023-05-05T01:48:56.967Z,20.52
2023-05-05T01:51:25.132Z,20.40
2023-05-05T01:53:54.397Z,20.39
2023-05-05T01:56:23.909Z,20.39
2023-05-05T01:58:52.470Z,20.27
2023-05-05T02:01:22.361Z,20.14
2023-05-05T02:03:51.112Z,20.03
2023-05-05T02:06:20.891Z,19.84
2023-05-05T02:08:50.032Z,19.85
2023-05-05T02:11:17.623Z,19.59
2023-05-05T02:13:45.297Z,19.62
2023-05-05T02:16:16.730Z,19.66
2023-05-05T02:18:45.978Z,19.63
2023-05-05T02:21:14.259Z,19.52
2023-05-05T02:23:40.933Z,19.47
2023-05-05T02:26:11.476Z,19.45
2023-05-05T02:28:46.607Z,19.38
2023-05-05T02:31:14.638Z,19.17
2023-05-05T02:33:43.101Z,19.19
2023-05-05T02:36:22.646Z,19.06
2023-05-05T02:38:58.078Z,18.96
2023-05-05T02:41:28.923Z,18.99
2023-05-05T02:43:58.401Z,18.93
2023-05-05T02:46:27.426Z,19.06
2023-05-05T02:48:54.752Z,19.02
2023-05-05T02:51:21.379Z,18.96
2023-05-05T02:53:48.097Z,18.88
2023-05-05T02:56:40.607Z,18.74
2023-05-05T02:59:26.413Z,18.70
2023-05-05T03:02:02.640Z,18.61
2023-05-05T03:04:41.815Z,18.55
2023-05-05T03:07:26.428Z,18.35
2023-05-05T03:10:06.526Z,18.21
2023-05-05T03:12:47.697Z,18.19
2023-05-05T03:15:25.852Z,18.29
2023-05-05T03:17:54.051Z,18.28
2023-05-05T03:20:22.143Z,18.25
2023-05-05T03:22:51.238Z,18.33
2023-05-05T03:25:17.960Z,18.19
2023-05-05T03:27:44.661Z,18.12
2023-05-05T03:30:14.593Z,18.35
2023-05-05T03:32:47.437Z,18.28
2023-05-05T03:35:14.349Z,18.26
2023-05-05T03:37:41.061Z,18.29
2023-05-05T03:40:08.455Z,18.18
2023-05-05T03:42:35.262Z,18.25
2023-05-05T03:45:02.140Z,18.24
2023-05-05T03:47:28.804Z,18.07
2023-05-05T03:49:56.886Z,18.03
2023-05-05T03:52:23.413Z,18.10
2023-05-05T03:54:50.204Z,18.16
2023-05-05T03:57:18.008Z,17.99
2023-05-05T03:59:44.760Z,18.03
2023-05-05T04:02:11.498Z,18.09
2023-05-05T04:04:38.126Z,18.07
2023-05-05T04:07:04.671Z,17.91
2023-05-05T04:09:32.143Z,18.22
2023-05-05T04:11:58.946Z,18.36
2023-05-05T04:14:25.591Z,18.23
2023-05-05T04:16:52.519Z,18.20
2023-05-05T04:19:19.509Z,18.16
2023-05-05T04:21:46.574Z,18.06
2023-05-05T04:24:13.705Z,18.15
2023-05-05T04:26:40.522Z,18.23
2023-05-05T04:29:07.096Z,18.29
2023-05-05T04:31:33.767Z,18.14
2023-05-05T04:34:00.731Z,18.23
2023-05-05T04:36:27.520Z,18.13
2023-05-05T04:38:54.827Z,18.06
2023-05-05T04:41:21.654Z,18.15
2023-05-05T04:43:49.091Z,18.07
2023-05-05T04:46:15.785Z,18.41
2023-05-05T04:48:42.701Z,18.30
2023-05-05T04:51:09.512Z,18.26
2023-05-05T04:53:37.358Z,18.35
2023-05-05T04:56:04.302Z,18.27
2023-05-05T04:58:31.248Z,18.56
2023-05-05T05:00:58.575Z,19.35
2023-05-05T05:03:25.513Z,20.06
2023-05-05T05:05:53.587Z,21.36
2023-05-05T05:08:20.375Z,22.08
2023-05-05T05:10:47.023Z,22.12
2023-05-05T05:13:13.915Z,22.57
2023-05-05T05:15:41.038Z,23.07
2023-05-05T05:18:07.901Z,23.36
2023-05-05T05:20:34.754Z,23.46
2023-05-05T05:23:02.313Z,23.92
2023-05-05T05:25:33.329Z,24.39
2023-05-05T05:28:09.435Z,24.76
2023-05-05T05:30:39.586Z,24.71
2023-05-05T05:33:08.237Z,24.51
2023-05-05T05:35:36.959Z,24.97
2023-05-05T05:38:04.330Z,25.03
2023-05-05T05:40:31.643Z,25.08
2023-05-05T05:42:59.419Z,25.49
2023-05-05T05:45:27.272Z,25.30
2023-05-05T05:47:56.485Z,26.17
2023-05-05T05:50:27.728Z,26.69
2023-05-05T05:52:56.054Z,27.06
2023-05-05T05:55:24.767Z,26.66
2023-05-05T05:57:52.949Z,26.47
2023-05-05T06:00:20.740Z,26.92
2023-05-05T06:02:54.353Z,26.51
2023-05-05T06:05:25.050Z,25.49
2023-05-05T06:07:52.659Z,24.91
2023-05-05T06:12:54.126Z,25.59
2023-05-05T06:15:21.137Z,25.44
2023-05-05T06:17:48.090Z,25.45
2023-05-05T06:20:14.900Z,24.54
2023-05-05T06:22:41.677Z,23.51
2023-05-05T06:25:08.916Z,23.74
2023-05-05T06:27:36.694Z,25.03
2023-05-05T06:30:03.799Z,26.73
2023-05-05T06:32:30.667Z,26.74
2023-05-05T06:34:57.313Z,25.74
2023-05-05T06:37:24.312Z,25.46
2023-05-05T06:39:51.026Z,25.36
2023-05-05T06:42:17.999Z,24.54
2023-05-05T06:44:45.760Z,25.07
2023-05-05T06:47:12.667Z,25.23
2023-05-05T06:49:39.470Z,25.60
2023-05-05T06:52:08.235Z,25.53
2023-05-05T06:54:35.005Z,26.23
2023-05-05T06:57:01.828Z,26.97
2023-05-05T06:59:28.419Z,27.47
2023-05-05T07:01:55.177Z,27.25
2023-05-05T07:04:21.755Z,26.68
2023-05-05T07:06:48.740Z,25.93
2023-05-05T07:09:17.101Z,25.32
2023-05-05T07:11:44.397Z,24.86
2023-05-05T07:14:11.393Z,24.64
2023-05-05T07:16:38.780Z,24.31
2023-05-05T07:19:06.254Z,24.60
2023-05-05T07:21:36.708Z,24.40
2023-05-05T07:24:04.009Z,24.25
2023-05-05T07:26:30.938Z,24.41
2023-05-05T07:28:58.888Z,24.26
2023-05-05T07:31:26.502Z,24.83
2023-05-05T07:33:53.464Z,26.09
2023-05-05T07:36:20.491Z,26.93
2023-05-05T07:38:47.767Z,26.85
2023-05-05T07:41:14.466Z,26.89
2023-05-05T07:43:44.171Z,27.85
2023-05-05T07:46:11.923Z,28.87
2023-05-05T07:48:41.551Z,28.36
2023-05-05T07:51:09.357Z,27.69
2023-05-05T07:53:36.553Z,28.40
2023-05-05T07:56:03.788Z,29.02
2023-05-05T07:58:30.846Z,28.99
2023-05-05T08:00:57.919Z,28.51
2023-05-05T08:03:25.110Z,28.36
2023-05-05T08:06:05.827Z,27.95
2023-05-05T08:08:32.893Z,28.00
2023-05-05T08:10:59.506Z,28.23
2023-05-05T08:13:26.296Z,28.07
2023-05-05T08:15:53.662Z,27.78
2023-05-05T08:18:20.351Z,27.93
2023-05-05T08:20:47.008Z,29.33
2023-05-05T08:23:13.683Z,29.65
2023-05-05T08:25:40.888Z,28.87
2023-05-05T08:28:07.746Z,28.43
2023-05-05T08:30:34.834Z,28.50
2023-05-05T08:33:01.887Z,28.56
2023-05-05T08:35:28.797Z,28.21
2023-05-05T08:37:58.151Z,28.06
2023-05-05T08:40:33.807Z,28.18
2023-05-05T08:43:01.452Z,28.07
2023-05-05T08:45:29.356Z,27.88
2023-05-05T08:48:04.172Z,27.89
2023-05-05T08:50:32.294Z,27.77
2023-05-05T08:53:10.685Z,26.99
2023-05-05T08:55:52.803Z,26.89
2023-05-05T08:58:20.195Z,26.94
2023-05-05T09:00:47.183Z,26.70
2023-05-05T09:03:16.155Z,26.34
2023-05-05T09:05:44.553Z,25.85
2023-05-05T09:08:12.973Z,25.27
2023-05-05T09:10:41.987Z,25.05
2023-05-05T09:13:09.204Z,25.22
2023-05-05T09:15:38.822Z,25.48
2023-05-05T09:18:10.260Z,25.69
2023-05-05T09:20:41.217Z,25.92
2023-05-05T09:23:11.228Z,26.13
2023-05-05T09:25:41.459Z,25.99
2023-05-05T09:28:16.672Z,25.60
2023-05-05T09:30:47.627Z,25.52
2023-05-05T09:33:14.480Z,25.58
2023-05-05T09:35:53.613Z,25.90
2023-05-05T09:38:21.691Z,25.68
2023-05-05T09:40:53.398Z,25.34
2023-05-05T09:43:22.680Z,25.77
2023-05-05T09:45:51.077Z,25.72
2023-05-05T09:48:34.994Z,24.77
2023-05-05T09:51:01.968Z,25.11
2023-05-05T09:53:39.136Z,25.81
2023-05-05T09:56:06.920Z,26.06
2023-05-05T09:58:33.885Z,25.28
2023-05-05T10:01:00.754Z,24.78
2023-05-05T10:03:27.634Z,24.23
2023-05-05T10:05:56.824Z,24.28
2023-05-05T10:08:27.066Z,24.07
2023-05-05T10:10:54.904Z,23.45
2023-05-05T10:13:23.847Z,23.49
2023-05-05T10:15:52.860Z,23.89
2023-05-05T10:18:27.457Z,23.97
2023-05-05T10:20:59.557Z,24.11
2023-05-05T10:23:48.412Z,23.38
2023-05-05T10:26:17.355Z,23.32
2023-05-05T10:28:49.198Z,23.56
2023-05-05T10:31:26.472Z,23.26
2023-05-05T10:34:00.421Z,22.56
2023-05-05T10:36:27.899Z,21.50
2023-05-05T10:38:59.882Z,20.01
2023-05-05T10:41:26.974Z,19.20
2023-05-05T10:43:56.573Z,19.05
2023-05-05T10:46:25.563Z,19.34
2023-05-05T10:49:23.249Z,19.04
2023-05-05T10:51:59.733Z,18.73
2023-05-05T10:55:07.654Z,18.53
2023-05-05T10:57:39.131Z,18.59
2023-05-05T11:00:08.782Z,18.48
2023-05-05T11:02:36.158Z,18.46
2023-05-05T11:05:21.034Z,18.53
2023-05-05T11:07:50.062Z,18.42
2023-05-05T11:10:20.886Z,18.36
2023-05-05T11:12:59.401Z,18.43
2023-05-05T11:15:26.055Z,18.50
2023-05-05T11:17:54.079Z,18.77
2023-05-05T11:20:39.753Z,19.08
2023-05-05T11:23:06.602Z,19.54
2023-05-05T11:25:38.583Z,19.31
2023-05-05T11:28:09.684Z,18.74
2023-05-05T11:30:59.828Z,18.84
2023-05-05T11:33:37.068Z,19.10
2023-05-05T11:36:07.772Z,19.38
2023-05-05T11:38:49.810Z,19.80
2023-05-05T11:41:19.840Z,19.87
2023-05-05T11:43:46.465Z,20.36
2023-05-05T11:46:14.828Z,20.56
2023-05-05T11:48:47.949Z,20.29
2023-05-05T11:51:17.056Z,19.98
2023-05-05T11:53:44.258Z,19.85
2023-05-05T11:56:12.243Z,19.70
2023-05-05T11:58:39.019Z,19.69
2023-05-05T12:01:07.124Z,19.71
2023-05-05T12:03:40.770Z,19.40
2023-05-05T12:06:09.980Z,19.59
2023-05-05T12:08:37.931Z,19.33
2023-05-05T12:11:06.787Z,19.45
2023-05-05T12:13:33.418Z,19.54
2023-05-05T12:16:14.489Z,19.70
2023-05-05T12:18:42.148Z,19.95
2023-05-05T12:21:14.710Z,20.23
2023-05-05T12:23:41.338Z,20.37
2023-05-05T12:26:08.083Z,20.61
2023-05-05T12:28:48.481Z,20.64
2023-05-05T12:31:15.977Z,20.43
2023-05-05T12:33:43.129Z,20.02
2023-05-05T12:36:12.175Z,19.90
2023-05-05T12:38:39.155Z,20.02
2023-05-05T12:41:05.933Z,20.18
2023-05-05T12:43:36.820Z,20.39
2023-05-05T12:46:12.760Z,20.33
2023-05-05T12:48:42.756Z,19.89
2023-05-05T12:51:21.282Z,20.05
2023-05-05T12:53:50.011Z,20.46
2023-05-05T12:56:34.233Z,20.69
2023-05-05T12:59:02.477Z,20.41
2023-05-05T13:01:29.727Z,20.45
2023-05-05T13:04:12.980Z,20.27
2023-05-05T13:06:41.515Z,20.31
2023-05-05T13:09:10.066Z,20.25
2023-05-05T13:11:38.202Z,20.12
2023-05-05T13:14:06.889Z,19.88
2023-05-05T13:16:34.113Z,19.90
2023-05-05T13:19:00.871Z,19.33
2023-05-05T13:21:28.074Z,19.03
2023-05-05T13:23:59.096Z,19.49
2023-05-05T13:26:31.893Z,18.99
2023-05-05T13:28:58.511Z,18.80
2023-05-05T13:31:25.193Z,18.70
2023-05-05T13:33:52.338Z,19.08
2023-05-05T13:36:19.061Z,18.97
2023-05-05T13:38:46.096Z,18.56
2023-05-05T13:41:12.803Z,18.74
2023-05-05T13:43:39.440Z,18.98
2023-05-05T13:46:19.198Z,19.01
2023-05-05T13:48:47.419Z,18.71
2023-05-05T13:51:14.112Z,18.59
2023-05-05T13:53:43.853Z,19.04
2023-05-05T13:56:10.927Z,19.52
2023-05-05T13:58:37.980Z,19.85
2023-05-05T14:01:04.813Z,19.84
2023-05-05T14:03:31.554Z,20.05
2023-05-05T14:05:58.292Z,20.13
2023-05-05T14:08:25.002Z,20.03
2023-05-05T14:10:52.275Z,20.08
2023-05-05T14:13:19.248Z,20.19
2023-05-05T14:15:46.553Z,20.13
2023-05-05T14:18:13.394Z,20.28
2023-05-05T14:20:40.045Z,20.57
2023-05-05T14:23:07.689Z,20.28
2023-05-05T14:25:34.475Z,20.11
2023-05-05T14:28:01.074Z,20.28
2023-05-05T14:30:27.772Z,20.33
2023-05-05T14:32:54.537Z,19.98
2023-05-05T14:35:21.312Z,20.29
2023-05-05T14:37:48.006Z,19.91
2023-05-05T14:40:14.915Z,20.37
2023-05-05T14:42:41.627Z,20.15
2023-05-05T14:45:11.308Z,20.38
2023-05-05T14:47:38.015Z,20.46
2023-05-05T14:50:05.552Z,20.67
2023-05-05T14:52:32.170Z,20.60
2023-05-05T14:54:58.668Z,20.53
2023-05-05T14:57:25.423Z,20.70
2023-05-05T14:59:53.024Z,20.63
2023-05-05T15:02:19.730Z,20.88
2023-05-05T15:04:48.038Z,21.13
2023-05-05T15:07:15.894Z,21.15
2023-05-05T15:09:42.511Z,21.13
2023-05-05T15:12:09.051Z,20.75
2023-05-05T15:14:36.735Z,20.99
2023-05-05T15:17:03.692Z,21.28
2023-05-05T15:19:31.062Z,21.02
2023-05-05T15:21:57.648Z,20.91
2023-05-05T15:24:24.238Z,20.94
2023-05-05T15:26:51.368Z,21.06
2023-05-05T15:29:17.936Z,21.05
2023-05-05T15:31:47.325Z,21.12
2023-05-05T15:34:13.912Z,20.96
2023-05-05T15:36:40.653Z,20.78
2023-05-05T15:39:07.197Z,20.89
2023-05-05T15:41:34.374Z,20.88
2023-05-05T15:44:03.108Z,20.94
2023-05-05T15:46:33.521Z,21.25
2023-05-05T15:49:00.294Z,21.18
2023-05-05T15:51:27.377Z,21.37
2023-05-05T15:53:54.141Z,21.44
2023-05-05T15:56:20.866Z,22.05
2023-05-05T15:58:47.472Z,22.13
2023-05-05T16:01:14.143Z,22.16
2023-05-05T16:03:44.138Z,22.28
2023-05-05T16:06:14.125Z,21.94
2023-05-05T16:08:41.206Z,22.04
2023-05-05T16:11:07.982Z,22.05
2023-05-05T16:13:34.834Z,22.06
2023-05-05T16:16:01.745Z,22.27
2023-05-05T16:18:28.328Z,22.29
2023-05-05T16:20:54.961Z,22.10
2023-05-05T16:23:21.594Z,21.82
2023-05-05T16:25:48.288Z,22.00
2023-05-05T16:28:14.887Z,21.78
2023-05-05T16:30:43.096Z,22.16
2023-05-05T16:33:10.090Z,21.72
2023-05-05T16:35:36.848Z,21.85
2023-05-05T16:38:03.611Z,22.08
2023-05-05T16:40:30.326Z,22.02
2023-05-05T16:42:56.960Z,22.35
2023-05-05T16:45:24.668Z,22.30
2023-05-05T16:47:51.370Z,22.43
2023-05-05T16:50:19.311Z,22.23
2023-05-05T16:52:46.200Z,21.86
2023-05-05T16:55:13.133Z,22.04
2023-05-05T16:57:40.049Z,22.16
2023-05-05T17:00:10.935Z,22.38
2023-05-05T17:06:58.574Z,22.17
2023-05-05T17:09:25.213Z,22.04
2023-05-05T17:11:52.145Z,22.29
2023-05-05T17:14:18.911Z,22.36
2023-05-05T17:16:46.892Z,22.54
2023-05-05T17:19:13.967Z,22.74
2023-05-05T17:21:40.655Z,22.67
2023-05-05T17:24:08.373Z,22.82
2023-05-05T17:26:35.313Z,22.79
2023-05-05T17:29:02.719Z,22.71
2023-05-05T17:31:29.532Z,22.45
2023-05-05T17:33:56.359Z,22.46
2023-05-05T17:36:23.228Z,22.46
2023-05-05T17:38:50.070Z,22.49
2023-05-05T17:41:17.511Z,22.30
2023-05-05T17:43:44.373Z,22.18
2023-05-05T17:46:11.529Z,22.19
2023-05-05T17:48:38.626Z,22.22
2023-05-05T17:51:05.571Z,22.59
2023-05-05T17:53:32.530Z,22.77
2023-05-05T17:55:59.584Z,23.06
2023-05-05T17:58:26.429Z,23.76
2023-05-05T18:00:54.491Z,24.25
2023-05-05T18:03:21.415Z,24.15
2023-05-05T18:05:48.101Z,23.70
2023-05-05T18:08:14.881Z,23.67
2023-05-05T18:10:42.265Z,23.58
2023-05-05T18:13:08.973Z,24.15
2023-05-05T18:15:35.737Z,23.54
2023-05-05T18:18:04.602Z,23.18
2023-05-05T18:20:31.102Z,22.56
2023-05-05T18:22:58.940Z,22.44
2023-05-05T18:25:26.469Z,22.14
2023-05-05T18:27:53.294Z,22.03
2023-05-05T18:30:21.286Z,21.73
2023-05-05T18:32:48.976Z,21.95
2023-05-05T18:35:16.039Z,21.71
2023-05-05T18:37:42.871Z,21.48
2023-05-05T18:40:10.339Z,21.56
2023-05-05T18:42:37.085Z,21.39
2023-05-05T18:45:04.232Z,21.27
2023-05-05T18:47:31.129Z,21.30
2023-05-05T18:49:58.061Z,21.14
2023-05-05T18:52:25.108Z,21.10
2023-05-05T18:54:51.742Z,20.95
2023-05-05T18:57:18.481Z,20.75
2023-05-05T18:59:46.098Z,20.71
2023-05-05T19:02:12.747Z,20.69
2023-05-05T19:04:40.277Z,20.64
2023-05-05T19:07:08.015Z,20.64
2023-05-05T19:09:34.908Z,20.50
2023-05-05T19:12:02.953Z,20.64
2023-05-05T19:14:31.258Z,20.57
2023-05-05T19:16:59.185Z,20.48
2023-05-05T19:19:26.498Z,20.46
2023-05-05T19:21:53.528Z,20.38
2023-05-05T19:24:20.288Z,20.37
2023-05-05T19:26:48.029Z,20.21
2023-05-05T19:29:16.083Z,20.18
2023-05-05T19:31:43.296Z,20.06
2023-05-05T19:34:10.066Z,20.03
2023-05-05T19:36:36.984Z,20.48
2023-05-05T19:39:04.925Z,20.53
2023-05-05T19:41:32.752Z,20.53
2023-05-05T19:44:00.165Z,20.45
2023-05-05T19:46:28.436Z,20.46
2023-05-05T19:48:55.815Z,20.40
2023-05-05T19:51:22.741Z,20.18
2023-05-05T19:53:50.370Z,20.40
2023-05-05T19:56:17.180Z,20.71
2023-05-05T19:58:57.633Z,20.82
2023-05-05T20:01:25.501Z,20.88
2023-05-05T20:03:54.716Z,20.79
2023-05-05T20:06:22.205Z,20.89
2023-05-05T20:08:48.789Z,20.93
2023-05-05T20:11:16.910Z,20.94
2023-05-05T20:13:43.850Z,21.05
2023-05-05T20:16:11.024Z,21.04
2023-05-05T20:18:39.109Z,21.06
2023-05-05T20:21:06.152Z,21.17
2023-05-05T20:23:34.098Z,21.17
2023-05-05T20:26:02.012Z,21.19
2023-05-05T20:28:31.740Z,21.17
2023-05-05T20:30:58.865Z,21.00
2023-05-05T20:33:25.372Z,20.94
2023-05-05T20:35:52.194Z,20.94
2023-05-05T20:38:19.407Z,20.93
2023-05-05T20:40:46.219Z,20.66
2023-05-05T20:43:12.748Z,20.74
2023-05-05T20:45:39.656Z,20.95
2023-05-05T20:48:09.704Z,20.81
2023-05-05T20:50:40.996Z,20.71
2023-05-05T20:53:09.143Z,20.98
2023-05-05T20:55:35.997Z,21.14
2023-05-05T20:58:04.582Z,20.86
2023-05-05T21:00:31.706Z,20.74
2023-05-05T21:02:58.862Z,20.39
2023-05-05T21:05:26.032Z,20.48
2023-05-05T21:07:54.160Z,20.45
2023-05-05T21:10:21.131Z,20.57
2023-05-05T21:12:47.923Z,20.60
2023-05-05T21:15:16.516Z,20.58
2023-05-05T21:17:43.360Z,20.49
2023-05-05T21:20:10.813Z,20.56
2023-05-05T21:22:37.916Z,20.42
2023-05-05T21:25:13.942Z,20.53
2023-05-05T21:27:41.514Z,20.41
2023-05-05T21:30:10.939Z,20.79
2023-05-05T21:32:40.279Z,20.80
2023-05-05T21:35:08.818Z,20.71
2023-05-05T21:37:37.944Z,20.60
2023-05-05T21:40:10.783Z,20.73
2023-05-05T21:42:37.978Z,20.75
2023-05-05T21:45:05.137Z,20.63
2023-05-05T21:47:33.236Z,20.54
2023-05-05T21:50:00.286Z,20.40
2023-05-05T21:52:27.241Z,20.41
2023-05-05T21:54:54.232Z,20.51
2023-05-05T21:57:21.450Z,20.54
2023-05-05T21:59:48.382Z,20.72
2023-05-05T22:02:15.162Z,20.77
2023-05-05T22:04:41.990Z,20.77
2023-05-05T22:07:08.679Z,20.84
2023-05-05T22:09:35.506Z,21.23
2023-05-05T22:12:02.645Z,20.90
2023-05-05T22:14:29.328Z,20.85
2023-05-05T22:16:56.014Z,20.70
2023-05-05T22:19:22.755Z,20.72
2023-05-05T22:21:49.363Z,20.67
2023-05-05T22:24:15.927Z,20.59
2023-05-05T22:26:43.345Z,20.41
2023-05-05T22:29:11.088Z,20.44
2023-05-05T22:31:38.123Z,20.30
2023-05-05T22:34:04.799Z,20.29
2023-05-05T22:36:31.809Z,20.22
2023-05-05T22:38:58.658Z,20.10
2023-05-05T22:41:25.712Z,20.17
2023-05-05T22:43:52.414Z,20.25
2023-05-05T22:46:19.021Z,20.20
2023-05-05T22:48:46.094Z,20.11
2023-05-05T22:51:13.481Z,20.04
2023-05-05T22:53:40.451Z,20.07
2023-05-05T22:56:08.546Z,19.83
2023-05-05T22:58:35.328Z,19.81
2023-05-05T23:01:02.132Z,19.80
2023-05-05T23:03:28.939Z,19.79
2023-05-05T23:05:56.811Z,19.85
2023-05-05T23:08:24.090Z,19.80
2023-05-05T23:10:51.115Z,19.75
2023-05-05T23:13:17.790Z,19.68
2023-05-05T23:15:44.483Z,19.59
2023-05-05T23:18:11.210Z,19.64
2023-05-05T23:20:38.029Z,19.73
2023-05-05T23:23:04.804Z,19.79
2023-05-05T23:25:31.465Z,19.63
2023-05-05T23:27:58.017Z,19.65
2023-05-05T23:30:24.691Z,19.57
2023-05-05T23:32:51.314Z,19.46
2023-05-05T23:35:18.104Z,19.30
2023-05-05T23:37:44.877Z,19.30
2023-05-05T23:40:11.860Z,19.29
2023-05-05T23:42:38.435Z,19.14
2023-05-05T23:45:05.458Z,19.09
2023-05-05T23:47:32.400Z,19.12
2023-05-05T23:49:59.428Z,19.19
2023-05-05T23:52:25.898Z,19.44
2023-05-05T23:54:52.619Z,19.43
2023-05-05T23:57:19.180Z,19.33
2023-05-05T23:59:45.909Z,19.28
